Time;durP1;ratioP1;P1;durP2;ratioP2;P2;SDS_P1;SDS_P2;PMS_P1;PMS_P2;Temp;Humidity;BMP_temperature;BMP_pressure;BME280_temperature;BME280_humidity;BME280_pressure;Samples;Min_cycle;Max_cycle;Signal;HPM_P1;HPM_P2
2023/12/04 00:01:53;;;;;;;54.87;28.30;;;;;;;-1.92;100.00;101221.19;1438729;90;21659;-79
2023/12/04 00:04:22;;;;;;;60.80;29.83;;;;;;;-1.88;100.00;101219.34;1452640;89;22630;-79
2023/12/04 00:06:48;;;;;;;54.07;27.70;;;;;;;-1.86;100.00;101229.23;1450872;90;21754;-79
2023/12/04 00:09:14;;;;;;;67.60;30.53;;;;;;;-1.88;100.00;101221.48;1452665;90;22515;-79
2023/12/04 00:11:40;;;;;;;61.57;29.70;;;;;;;-1.90;100.00;101229.78;1455898;89;21620;-79
2023/12/04 00:14:07;;;;;;;55.77;27.47;;;;;;;-1.90;100.00;101230.20;1453557;90;21537;-79
2023/12/04 00:16:37;;;;;;;45.93;24.47;;;;;;;-1.90;100.00;101228.48;1429833;90;22476;-79
2023/12/04 00:19:03;;;;;;;48.67;25.23;;;;;;;-1.88;100.00;101235.75;1449549;89;21843;-79
2023/12/04 00:21:30;;;;;;;46.63;25.70;;;;;;;-1.85;100.00;101230.46;1451028;90;21678;-78
2023/12/04 00:23:56;;;;;;;47.77;24.43;;;;;;;-1.85;100.00;101230.46;1454522;88;21791;-79
2023/12/04 00:26:22;;;;;;;49.00;25.63;;;;;;;-1.89;100.00;101233.22;1453344;89;21839;-78
2023/12/04 00:28:49;;;;;;;49.10;24.17;;;;;;;-1.90;100.00;101240.16;1453095;89;22301;-80
2023/12/04 00:31:15;;;;;;;43.87;24.73;;;;;;;-1.90;100.00;101240.16;1457302;90;21657;-78
2023/12/04 00:33:41;;;;;;;53.70;26.43;;;;;;;-1.92;100.00;101243.24;1445794;89;21702;-79
2023/12/04 00:36:09;;;;;;;47.00;25.93;;;;;;;-1.94;100.00;101242.44;1428320;90;22507;-79
2023/12/04 00:38:35;;;;;;;44.23;24.60;;;;;;;-1.93;100.00;101241.53;1454706;90;21707;-80
2023/12/04 00:41:01;;;;;;;43.13;23.80;;;;;;;-1.90;100.00;101238.86;1452229;89;21718;-79
2023/12/04 00:43:28;;;;;;;41.60;23.63;;;;;;;-1.89;100.00;101249.63;1449241;89;22139;-78
2023/12/04 00:45:54;;;;;;;52.30;24.77;;;;;;;-1.89;100.00;101247.03;1449500;89;22597;-79
2023/12/04 00:48:20;;;;;;;42.57;24.13;;;;;;;-1.88;100.00;101243.53;1451223;89;21680;-79
2023/12/04 00:50:47;;;;;;;44.20;25.67;;;;;;;-1.86;100.00;101243.50;1433245;90;21638;-78
2023/12/04 00:53:13;;;;;;;47.13;25.60;;;;;;;-1.84;100.00;101242.56;1450142;89;21829;-79
2023/12/04 00:55:39;;;;;;;38.60;21.50;;;;;;;-1.80;100.00;101242.00;1447922;89;22643;-79
2023/12/04 00:58:06;;;;;;;43.73;21.43;;;;;;;-1.77;100.00;101242.36;1459324;89;22177;-78
2023/12/04 01:00:32;;;;;;;40.07;20.83;;;;;;;-1.75;100.00;101241.88;1454301;89;21827;-78
2023/12/04 01:02:58;;;;;;;75.53;36.63;;;;;;;-1.76;100.00;101238.86;1449543;90;21853;-78
2023/12/04 01:05:24;;;;;;;72.67;33.33;;;;;;;-1.80;100.00;101243.76;1429146;90;21671;-79
2023/12/04 01:07:51;;;;;;;33.63;18.13;;;;;;;-1.82;100.00;101243.34;1454325;89;21699;-79
2023/12/04 01:10:18;;;;;;;112.90;55.30;;;;;;;-1.88;100.00;101251.32;1454918;90;22676;-78
2023/12/04 01:12:44;;;;;;;103.43;50.10;;;;;;;-1.92;100.00;101248.44;1444252;89;22529;-78
2023/12/04 01:15:10;;;;;;;180.63;75.67;;;;;;;-1.95;100.00;101252.42;1424673;90;21657;-78
2023/12/04 01:17:36;;;;;;;44.17;23.40;;;;;;;-2.06;100.00;101250.61;1451144;90;22530;-78
2023/12/04 01:20:03;;;;;;;72.77;36.70;;;;;;;-2.09;100.00;101251.55;1452058;90;21727;-78
2023/12/04 01:22:29;;;;;;;83.50;38.83;;;;;;;-2.10;100.00;101256.77;1450665;89;21732;-77
2023/12/04 01:24:55;;;;;;;59.87;29.83;;;;;;;-2.09;100.00;101254.59;1449616;88;21672;-78
2023/12/04 01:27:21;;;;;;;45.67;23.50;;;;;;;-2.06;100.00;101260.98;1451906;89;22797;-78
2023/12/04 01:29:47;;;;;;;63.70;30.60;;;;;;;-2.06;100.00;101256.64;1457464;89;21906;-78
2023/12/04 01:32:14;;;;;;;44.20;23.03;;;;;;;-2.07;100.00;101259.30;1444567;89;21758;-79
2023/12/04 01:34:40;;;;;;;50.63;23.67;;;;;;;-2.11;100.00;101262.41;1462115;89;21722;-79
2023/12/04 01:37:06;;;;;;;33.87;20.37;;;;;;;-2.14;100.00;101262.95;1453650;89;22477;-78
2023/12/04 01:39:32;;;;;;;36.77;21.37;;;;;;;-2.15;100.00;101270.34;1433079;90;21706;-79
2023/12/04 01:41:58;;;;;;;40.57;23.97;;;;;;;-2.20;100.00;101267.03;1456829;89;21503;-79
2023/12/04 01:44:24;;;;;;;40.33;22.45;;;;;;;-2.18;100.00;101263.50;1449675;90;21631;-78
2023/12/04 01:46:51;;;;;;;37.87;21.17;;;;;;;-2.16;100.00;101256.95;1449364;89;21486;-78
2023/12/04 01:49:17;;;;;;;37.13;21.53;;;;;;;-2.17;100.00;101255.27;1454773;89;21773;-78
2023/12/04 01:51:46;;;;;;;40.17;22.45;;;;;;;-2.14;100.00;101260.36;1456595;90;23718;-78
2023/12/04 01:54:13;;;;;;;38.87;21.27;;;;;;;-2.11;100.00;101262.41;1447277;90;21464;-78
2023/12/04 01:56:39;;;;;;;36.87;20.80;;;;;;;-2.09;100.00;101264.97;1449658;90;22171;-79
2023/12/04 01:59:06;;;;;;;36.58;19.80;;;;;;;-2.08;100.00;101257.58;1425455;90;22360;-79
2023/12/04 02:01:33;;;;;;;41.67;22.50;;;;;;;-2.04;100.00;101256.61;1455774;89;21471;-78
2023/12/04 02:04:01;;;;;;;37.42;22.60;;;;;;;-2.02;100.00;101252.20;1450481;89;21766;-78
2023/12/04 02:06:28;;;;;;;40.33;23.83;;;;;;;-2.04;100.00;101254.02;1449441;90;21596;-79
2023/12/04 02:08:54;;;;;;;39.07;21.47;;;;;;;-2.06;100.00;101256.64;1451557;89;21635;-79
2023/12/04 02:11:21;;;;;;;40.40;22.17;;;;;;;-2.03;100.00;101258.30;1447821;89;21818;-79
2023/12/04 02:13:47;;;;;;;37.63;20.60;;;;;;;-2.03;100.00;101251.80;1451736;90;21456;-79
2023/12/04 02:16:16;;;;;;;42.50;24.47;;;;;;;-2.04;100.00;101248.83;1449693;90;21553;-79
2023/12/04 02:18:43;;;;;;;38.33;22.47;;;;;;;-2.01;100.00;101259.10;1447799;89;21397;-81
2023/12/04 02:21:10;;;;;;;41.57;22.53;;;;;;;-2.01;100.00;101263.41;1461374;89;23182;-78
2023/12/04 02:23:36;;;;;;;45.30;22.67;;;;;;;-2.03;100.00;101262.19;1452988;89;21573;-80
2023/12/04 02:26:19;;;;;;;45.67;23.90;;;;;;;-2.06;100.00;101263.13;1459606;88;21553;-78
2023/12/04 02:28:48;;;;;;;41.75;23.12;;;;;;;-2.05;100.00;101271.30;1441998;89;21715;-78
2023/12/04 02:31:18;;;;;;;44.10;24.20;;;;;;;-2.02;100.00;101263.03;1455550;90;22410;-80
2023/12/04 02:33:47;;;;;;;46.25;24.92;;;;;;;-2.00;100.00;101262.09;1449956;90;21464;-80
2023/12/04 02:36:14;;;;;;;52.13;24.98;;;;;;;-2.00;100.00;101264.68;1430401;90;21469;-79
2023/12/04 02:38:41;;;;;;;49.73;26.47;;;;;;;-1.99;100.00;101261.18;1450769;89;21464;-79
2023/12/04 02:41:07;;;;;;;51.13;25.53;;;;;;;-1.99;100.00;101267.66;1451527;89;21640;-78
2023/12/04 02:43:34;;;;;;;59.97;29.07;;;;;;;-1.99;100.00;101254.69;1454849;90;21871;-79
2023/12/04 02:46:00;;;;;;;54.60;27.97;;;;;;;-1.98;100.00;101265.49;1453032;90;21787;-79
2023/12/04 02:48:26;;;;;;;54.38;28.67;;;;;;;-1.98;100.00;101264.20;1457022;89;21838;-79
2023/12/04 02:50:52;;;;;;;49.47;27.03;;;;;;;-1.99;100.00;101263.77;1445585;90;21478;-79
2023/12/04 02:53:18;;;;;;;52.60;25.73;;;;;;;-2.03;100.00;101267.37;1446263;89;22641;-79
2023/12/04 02:55:45;;;;;;;53.03;27.37;;;;;;;-2.02;100.00;101272.95;1448453;90;22092;-78
2023/12/04 02:58:11;;;;;;;47.40;27.67;;;;;;;-2.02;100.00;101272.95;1443298;89;21920;-79
2023/12/04 03:00:37;;;;;;;47.80;27.37;;;;;;;-2.05;100.00;101275.64;1453843;89;22463;-79
2023/12/04 03:03:03;;;;;;;52.20;27.60;;;;;;;-2.04;100.00;101274.77;1455684;90;21778;-79
2023/12/04 03:05:29;;;;;;;53.13;28.57;;;;;;;-2.07;100.00;101277.45;1451674;89;22237;-79
2023/12/04 03:07:55;;;;;;;51.75;29.20;;;;;;;-2.08;100.00;101277.03;1449658;89;21747;-79
2023/12/04 03:10:22;;;;;;;54.58;30.97;;;;;;;-2.06;100.00;101271.36;1460963;90;21449;-79
2023/12/04 03:12:48;;;;;;;50.27;28.53;;;;;;;-1.99;100.00;101283.23;1451439;90;21464;-78
2023/12/04 03:15:14;;;;;;;59.70;29.70;;;;;;;-1.94;100.00;101277.45;1451815;90;21731;-79
2023/12/04 03:17:40;;;;;;;56.27;29.90;;;;;;;-1.87;100.00;101276.81;1449995;89;21791;-78
2023/12/04 03:20:08;;;;;;;55.70;31.53;;;;;;;-1.82;100.00;101280.13;1448613;90;22161;-79
2023/12/04 03:22:37;;;;;;;57.90;31.30;;;;;;;-1.77;100.00;101277.39;1447687;89;22195;-79
2023/12/04 03:25:04;;;;;;;62.53;31.53;;;;;;;-1.78;100.00;101281.74;1456760;88;21809;-79
2023/12/04 03:27:30;;;;;;;61.90;32.23;;;;;;;-1.77;100.00;101274.80;1486898;88;23137;-78
2023/12/04 03:29:56;;;;;;;61.00;33.40;;;;;;;-1.72;100.00;101269.02;1475819;88;21693;-78
2023/12/04 03:32:22;;;;;;;66.90;35.10;;;;;;;-1.67;100.00;101277.48;1479954;88;22432;-78
2023/12/04 03:34:49;;;;;;;60.33;32.67;;;;;;;-1.66;100.00;101281.34;1466659;88;21656;-78
2023/12/04 03:37:15;;;;;;;57.47;31.67;;;;;;;-1.65;100.00;101280.89;1469667;88;21795;-77
2023/12/04 03:39:41;;;;;;;58.60;30.17;;;;;;;-1.63;100.00;101283.84;1475284;88;22556;-78
2023/12/04 03:42:07;;;;;;;61.07;33.67;;;;;;;-1.63;100.00;101280.41;1476783;88;21864;-78
2023/12/04 03:44:33;;;;;;;67.03;32.53;;;;;;;-1.62;100.00;101280.34;1480326;88;21749;-78
2023/12/04 03:46:59;;;;;;;69.47;37.27;;;;;;;-1.62;100.00;101285.98;1472322;88;21779;-80
2023/12/04 03:49:26;;;;;;;68.47;34.33;;;;;;;-1.62;100.00;101295.91;1473943;88;22620;-80
2023/12/04 03:51:52;;;;;;;63.33;32.97;;;;;;;-1.60;100.00;101298.02;1476071;88;22562;-79
2023/12/04 03:54:18;;;;;;;62.60;33.13;;;;;;;-1.60;100.00;101303.67;1478962;88;21861;-78
2023/12/04 03:56:44;;;;;;;71.70;37.43;;;;;;;-1.62;100.00;101306.75;1474383;88;21462;-79
2023/12/04 03:59:10;;;;;;;69.57;34.83;;;;;;;-1.60;100.00;101311.45;1473364;88;21802;-79
2023/12/04 04:01:37;;;;;;;71.73;34.23;;;;;;;-1.57;100.00;101303.56;1472834;88;22615;-78
2023/12/04 04:04:03;;;;;;;71.30;37.40;;;;;;;-1.55;100.00;101301.78;1464355;88;22371;-78
2023/12/04 04:06:29;;;;;;;67.93;33.47;;;;;;;-1.54;100.00;101300.88;1476626;88;21619;-79
2023/12/04 04:08:55;;;;;;;71.00;37.57;;;;;;;-1.54;100.00;101300.88;1474459;88;21613;-78
2023/12/04 04:11:21;;;;;;;72.47;36.73;;;;;;;-1.52;100.00;101295.19;1466897;88;22498;-79
2023/12/04 04:13:47;;;;;;;73.57;38.93;;;;;;;-1.50;100.00;101303.76;1474154;88;21885;-81
2023/12/04 04:16:16;;;;;;;65.90;34.20;;;;;;;-1.49;100.00;101288.59;1475869;88;21661;-79
2023/12/04 04:21:07;;;;;;;66.70;36.13;;;;;;;-1.42;100.00;101291.37;1508913;85;27980;-80
2023/12/04 04:23:33;;;;;;;73.83;38.50;;;;;;;-1.44;100.00;101291.03;1485928;87;21639;-79
2023/12/04 04:25:59;;;;;;;67.47;36.50;;;;;;;-1.42;100.00;101295.27;1465518;87;22390;-80
2023/12/04 04:28:26;;;;;;;67.67;33.00;;;;;;;-1.38;100.00;101303.84;1469638;87;22316;-80
2023/12/04 04:30:52;;;;;;;66.03;34.47;;;;;;;-1.36;100.00;101301.56;1488002;87;21589;-80
2023/12/04 04:33:18;;;;;;;61.57;36.43;;;;;;;-1.33;100.00;101299.31;1458410;87;22675;-79
2023/12/04 04:35:46;;;;;;;56.37;34.00;;;;;;;-1.35;100.00;101301.14;1465845;88;21716;-79
2023/12/04 04:38:12;;;;;;;52.73;30.67;;;;;;;-1.41;100.00;101300.89;1468264;87;21719;-80
2023/12/04 04:40:41;;;;;;;44.53;27.50;;;;;;;-1.43;100.00;101298.78;1492700;87;21772;-79
2023/12/04 04:43:06;;;;;;;52.40;30.20;;;;;;;-1.42;100.00;101292.68;1504459;86;21491;-78
2023/12/04 04:45:33;;;;;;;53.07;31.03;;;;;;;-1.42;100.00;101297.87;1478133;88;21632;-79
2023/12/04 04:47:59;;;;;;;49.53;30.13;;;;;;;-1.43;100.00;101300.08;1477815;88;22469;-80
2023/12/04 04:50:25;;;;;;;57.73;30.40;;;;;;;-1.45;100.00;101300.57;1480340;88;21579;-78
2023/12/04 04:52:51;;;;;;;55.47;31.43;;;;;;;-1.47;100.00;101299.77;1466797;88;21672;-79
2023/12/04 04:55:17;;;;;;;52.53;28.53;;;;;;;-1.47;100.00;101298.92;1480313;87;22371;-80
2023/12/04 04:57:43;;;;;;;48.67;27.83;;;;;;;-1.46;100.00;101300.64;1480237;87;21559;-79
2023/12/04 05:00:11;;;;;;;51.33;28.70;;;;;;;-1.45;100.00;101305.77;1472987;88;22023;-79
2023/12/04 05:02:37;;;;;;;46.60;24.73;;;;;;;-1.46;100.00;101300.18;1461556;87;22934;-78
2023/12/04 05:05:04;;;;;;;41.60;22.57;;;;;;;-1.47;100.00;101307.55;1466536;88;21667;-78
2023/12/04 05:07:31;;;;;;;34.70;20.43;;;;;;;-1.47;100.00;101311.90;1469579;87;22957;-78
2023/12/04 05:09:57;;;;;;;37.50;22.33;;;;;;;-1.49;100.00;101311.97;1475965;88;22453;-78
2023/12/04 05:12:23;;;;;;;34.43;20.70;;;;;;;-1.51;100.00;101315.51;1473947;88;21765;-77
2023/12/04 05:14:49;;;;;;;34.17;21.57;;;;;;;-1.53;100.00;101316.00;1477397;88;21611;-78
2023/12/04 05:17:15;;;;;;;33.40;20.73;;;;;;;-1.55;100.00;101317.36;1474308;88;21743;-78
2023/12/04 05:19:42;;;;;;;36.17;21.83;;;;;;;-1.59;100.00;101317.88;1467143;87;21625;-78
2023/12/04 05:22:08;;;;;;;32.47;19.43;;;;;;;-1.65;100.00;101310.74;1462223;87;22047;-78
2023/12/04 05:24:35;;;;;;;30.37;19.60;;;;;;;-1.62;100.00;101323.17;1467278;87;21830;-78
2023/12/04 05:27:02;;;;;;;31.97;20.23;;;;;;;-1.65;100.00;101326.31;1469951;87;21536;-78
2023/12/04 05:29:29;;;;;;;39.93;24.63;;;;;;;-1.66;100.00;101315.55;1464249;88;22690;-78
2023/12/04 05:31:57;;;;;;;34.30;21.50;;;;;;;-1.71;100.00;101315.67;1475342;87;21545;-77
2023/12/04 05:34:24;;;;;;;31.37;19.20;;;;;;;-1.73;100.00;101321.81;1484471;88;21744;-78
2023/12/04 05:36:50;;;;;;;30.30;19.27;;;;;;;-1.82;100.00;101327.67;1479848;88;21932;-79
2023/12/04 05:39:16;;;;;;;31.80;19.63;;;;;;;-1.85;100.00;101326.47;1480857;88;22479;-77
2023/12/04 05:41:42;;;;;;;35.57;20.67;;;;;;;-1.89;100.00;101324.88;1451632;88;21747;-78
2023/12/04 05:44:08;;;;;;;29.50;19.17;;;;;;;-1.90;100.00;101327.09;1454088;88;21754;-78
2023/12/04 05:46:34;;;;;;;34.57;20.10;;;;;;;-1.86;100.00;101335.63;1443727;88;21662;-78
2023/12/04 05:49:01;;;;;;;31.33;20.40;;;;;;;-1.88;100.00;101328.32;1479811;87;22495;-78
2023/12/04 05:51:27;;;;;;;31.43;18.40;;;;;;;-1.88;100.00;101336.95;1472468;88;21682;-76
2023/12/04 05:53:53;;;;;;;30.33;18.20;;;;;;;-1.88;100.00;101340.84;1459870;89;21662;-77
2023/12/04 05:56:19;;;;;;;29.57;19.53;;;;;;;-1.87;100.00;101343.86;1466913;89;22649;-78
2023/12/04 05:58:46;;;;;;;26.77;17.77;;;;;;;-1.87;100.00;101337.79;1458977;88;21663;-78
2023/12/04 06:01:12;;;;;;;28.33;19.10;;;;;;;-1.89;100.00;101341.75;1463809;89;21668;-78
2023/12/04 06:03:38;;;;;;;35.53;18.47;;;;;;;-1.85;100.00;101338.15;1465296;89;22751;-78
2023/12/04 06:06:05;;;;;;;33.73;18.57;;;;;;;-1.82;100.00;101337.22;1464945;89;21597;-77
2023/12/04 06:08:31;;;;;;;26.80;16.73;;;;;;;-1.78;100.00;101344.03;1463739;89;22580;-77
2023/12/04 06:10:58;;;;;;;27.90;16.93;;;;;;;-1.71;100.00;101344.68;1449391;89;21605;-77
2023/12/04 06:13:24;;;;;;;29.43;16.73;;;;;;;-1.68;100.00;101352.37;1471115;89;21513;-77
2023/12/04 06:15:50;;;;;;;33.83;20.73;;;;;;;-1.71;100.00;101348.58;1466283;89;21760;-77
2023/12/04 06:18:16;;;;;;;28.60;17.60;;;;;;;-1.73;100.00;101350.36;1459921;89;22939;-77
2023/12/04 06:20:43;;;;;;;29.93;17.50;;;;;;;-1.75;100.00;101352.17;1453707;89;21698;-77
2023/12/04 06:23:10;;;;;;;25.20;15.67;;;;;;;-1.80;100.00;101352.75;1446484;90;21751;-78
2023/12/04 06:25:38;;;;;;;27.83;18.00;;;;;;;-1.84;100.00;101355.89;1453811;90;21860;-77
2023/12/04 06:28:05;;;;;;;28.90;17.97;;;;;;;-1.85;100.00;101351.13;1464707;89;21618;-77
2023/12/04 06:30:32;;;;;;;30.93;15.87;;;;;;;-1.93;100.00;101358.28;1452490;89;22462;-78
2023/12/04 06:32:59;;;;;;;23.00;14.20;;;;;;;-1.91;100.00;101364.28;1449019;89;22109;-76
2023/12/04 06:35:26;;;;;;;22.47;14.07;;;;;;;-1.92;100.00;101357.41;1451749;90;21837;-77
2023/12/04 06:37:55;;;;;;;26.07;15.23;;;;;;;-1.92;100.00;101359.16;1457308;90;21699;-77
2023/12/04 06:40:22;;;;;;;29.73;16.33;;;;;;;-1.92;100.00;101363.05;1456027;89;21785;-76
2023/12/04 06:42:49;;;;;;;39.23;20.63;;;;;;;-1.90;100.00;101363.41;1456119;90;21814;-77
2023/12/04 06:45:16;;;;;;;44.53;20.00;;;;;;;-1.92;100.00;101358.70;1453227;90;22482;-77
2023/12/04 06:47:45;;;;;;;35.50;17.90;;;;;;;-1.96;100.00;101363.56;1449032;90;21529;-77
2023/12/04 06:50:12;;;;;;;38.13;19.75;;;;;;;-1.96;100.00;101363.56;1451825;90;21648;-76
2023/12/04 06:52:38;;;;;;;41.93;20.13;;;;;;;-1.97;100.00;101363.17;1450411;90;21596;-77
2023/12/04 06:55:05;;;;;;;32.83;18.83;;;;;;;-1.99;100.00;101361.06;1456490;90;21655;-76
2023/12/04 06:57:31;;;;;;;26.90;15.97;;;;;;;-1.99;100.00;101364.11;1450146;90;21991;-77
2023/12/04 06:59:57;;;;;;;30.87;20.40;;;;;;;-1.97;100.00;101369.66;1454744;89;21788;-77
2023/12/04 07:02:24;;;;;;;33.70;21.33;;;;;;;-1.97;100.00;101371.41;1452900;90;21536;-77
2023/12/04 07:04:50;;;;;;;29.20;19.30;;;;;;;-2.00;100.00;101377.53;1452248;90;22475;-76
2023/12/04 07:07:16;;;;;;;33.83;22.30;;;;;;;-2.00;100.00;101381.42;1458311;90;21670;-78
2023/12/04 07:09:42;;;;;;;48.77;33.83;;;;;;;-2.02;100.00;101387.55;1453672;90;22698;-76
2023/12/04 07:12:08;;;;;;;27.93;17.27;;;;;;;-2.06;100.00;101388.94;1445606;89;21731;-80
2023/12/04 07:14:35;;;;;;;26.80;16.20;;;;;;;-2.07;100.00;101387.25;1457215;90;21619;-79
2023/12/04 07:17:01;;;;;;;25.17;15.73;;;;;;;-2.06;100.00;101390.69;1453057;90;21761;-80
2023/12/04 07:19:27;;;;;;;27.87;15.37;;;;;;;-2.06;100.00;101386.34;1462092;90;22726;-78
2023/12/04 07:21:53;;;;;;;76.07;40.53;;;;;;;-2.06;100.00;101394.58;1458422;89;21722;-78
2023/12/04 07:24:20;;;;;;;68.30;39.10;;;;;;;-2.05;100.00;101387.19;1462635;89;21818;-79
2023/12/04 07:26:46;;;;;;;45.47;27.73;;;;;;;-2.00;100.00;101387.91;1451825;89;21689;-79
2023/12/04 07:29:12;;;;;;;38.03;22.53;;;;;;;-1.98;100.00;101383.53;1456811;89;22027;-79
2023/12/04 07:31:41;;;;;;;31.20;18.87;;;;;;;-1.97;100.00;101386.52;1460267;89;21769;-80
2023/12/04 07:34:07;;;;;;;30.33;16.17;;;;;;;-1.98;100.00;101380.95;1464293;89;22190;-79
2023/12/04 07:36:33;;;;;;;36.37;19.50;;;;;;;-1.99;100.00;101385.70;1455137;89;21821;-79
2023/12/04 07:38:59;;;;;;;38.17;20.67;;;;;;;-2.01;100.00;101390.53;1461461;89;21662;-80
2023/12/04 07:41:25;;;;;;;33.73;19.57;;;;;;;-2.02;100.00;101387.09;1462983;89;22573;-80
2023/12/04 07:43:51;;;;;;;26.63;16.40;;;;;;;-2.07;100.00;101394.19;1454074;89;21560;-80
2023/12/04 07:46:18;;;;;;;23.97;15.67;;;;;;;-2.13;100.00;101394.33;1450450;89;21675;-80
2023/12/04 07:48:45;;;;;;;30.00;18.17;;;;;;;-2.16;100.00;101395.26;1458963;89;21814;-79
2023/12/04 07:51:11;;;;;;;29.03;18.57;;;;;;;-2.20;100.00;101398.84;1456400;89;21770;-78
2023/12/04 07:53:37;;;;;;;27.00;16.87;;;;;;;-2.20;100.00;101396.70;1460823;89;22930;-78
2023/12/04 07:56:05;;;;;;;25.70;16.80;;;;;;;-2.20;100.00;101396.70;1456611;89;22602;-77
2023/12/04 07:58:31;;;;;;;29.70;17.27;;;;;;;-2.20;100.00;101395.41;1382760;89;21767;-79
2023/12/04 08:00:59;;;;;;;30.40;19.63;;;;;;;-2.18;100.00;101395.77;1378490;90;22087;-77
2023/12/04 08:03:25;;;;;;;29.30;19.63;;;;;;;-2.23;100.00;101397.64;1383112;89;21696;-79
2023/12/04 08:05:52;;;;;;;29.20;18.57;;;;;;;-2.23;100.00;101400.69;1384413;89;22321;-80
2023/12/04 08:08:18;;;;;;;30.30;20.13;;;;;;;-2.24;100.00;101397.66;1384118;89;21818;-79
2023/12/04 08:10:44;;;;;;;28.90;18.37;;;;;;;-2.19;100.00;101399.69;1396498;89;21718;-79
2023/12/04 08:13:10;;;;;;;38.40;18.73;;;;;;;-2.11;100.00;101398.58;1454396;89;22610;-78
2023/12/04 08:15:36;;;;;;;46.43;24.33;;;;;;;-2.07;100.00;101395.03;1454767;89;21603;-79
2023/12/04 08:18:03;;;;;;;60.60;27.10;;;;;;;-1.96;100.00;101397.30;1457671;89;21935;-79
2023/12/04 08:20:29;;;;;;;61.97;28.30;;;;;;;-1.86;100.00;101402.63;1453917;88;21696;-78
2023/12/04 08:22:55;;;;;;;33.10;20.20;;;;;;;-1.74;100.00;101414.85;1444131;90;21622;-79
2023/12/04 08:25:22;;;;;;;33.93;19.53;;;;;;;-1.71;100.00;101412.16;1449739;90;21716;-78
2023/12/04 08:27:49;;;;;;;40.47;21.70;;;;;;;-1.69;100.00;101407.79;1440033;90;22260;-79
2023/12/04 08:30:15;;;;;;;39.03;21.33;;;;;;;-1.69;100.00;101416.87;1448259;90;21428;-79
2023/12/04 08:32:41;;;;;;;32.33;19.13;;;;;;;-1.68;100.00;101417.27;1449351;90;21717;-78
2023/12/04 08:35:08;;;;;;;33.50;18.50;;;;;;;-1.67;100.00;101409.87;1445193;90;22570;-79
2023/12/04 08:37:34;;;;;;;33.57;18.83;;;;;;;-1.63;100.00;101407.60;1455423;90;21803;-78
2023/12/04 08:40:00;;;;;;;23.80;16.00;;;;;;;-1.57;100.00;101397.48;1451379;90;21730;-80
2023/12/04 08:42:27;;;;;;;29.07;17.57;;;;;;;-1.54;100.00;101396.09;1453428;89;21509;-80
2023/12/04 08:44:53;;;;;;;32.50;19.40;;;;;;;-1.51;100.00;101405.92;1452769;89;21814;-80
2023/12/04 08:47:19;;;;;;;36.00;19.43;;;;;;;-1.45;100.00;101407.03;1452605;90;21878;-78
2023/12/04 08:49:45;;;;;;;29.30;16.93;;;;;;;-1.38;100.00;101407.72;1458481;90;22439;-77
2023/12/04 08:52:12;;;;;;;28.33;18.80;;;;;;;-1.40;100.00;101410.34;1448546;89;21619;-79
2023/12/04 08:54:44;;;;;;;28.03;17.87;;;;;;;-1.31;100.00;101416.16;1446947;89;21919;-78
2023/12/04 08:57:09;;;;;;;27.43;16.93;;;;;;;-1.27;100.00;101418.59;1455150;89;22560;-79
2023/12/04 08:59:35;;;;;;;27.83;17.80;;;;;;;-1.22;100.00;101416.70;1449224;90;21840;-79
2023/12/04 09:02:04;;;;;;;28.17;17.13;;;;;;;-1.13;100.00;101423.36;1449001;90;21809;-77
2023/12/04 09:04:31;;;;;;;25.90;16.50;;;;;;;-1.10;100.00;101428.45;1452575;89;21865;-80
2023/12/04 09:06:58;;;;;;;28.37;16.97;;;;;;;-1.08;100.00;101430.56;1378552;90;22275;-79
2023/12/04 09:09:25;;;;;;;25.13;16.00;;;;;;;-1.01;100.00;101439.85;1402809;90;21828;-79
2023/12/04 09:11:51;;;;;;;26.93;17.63;;;;;;;-0.94;100.00;101434.03;1445141;90;21927;-79
2023/12/04 09:14:17;;;;;;;28.20;16.50;;;;;;;-0.86;100.00;101433.77;1449183;90;21727;-79
2023/12/04 09:16:43;;;;;;;21.13;15.07;;;;;;;-0.91;100.00;101432.17;1456191;89;21851;-79
2023/12/04 09:19:10;;;;;;;22.87;15.10;;;;;;;-0.97;100.00;101432.38;1453345;90;21756;-79
2023/12/04 09:21:37;;;;;;;24.63;15.20;;;;;;;-0.99;100.00;101423.77;1463910;89;22749;-78
2023/12/04 09:24:03;;;;;;;22.13;14.27;;;;;;;-1.02;100.00;101427.77;1461339;89;21875;-77
2023/12/04 09:26:30;;;;;;;22.87;14.77;;;;;;;-0.94;100.00;101427.08;1456773;89;21829;-79
2023/12/04 09:28:56;;;;;;;24.00;15.87;;;;;;;-0.86;100.00;101433.77;1459453;89;21750;-79
2023/12/04 09:31:22;;;;;;;19.37;13.83;;;;;;;-0.74;100.00;101428.19;1456864;89;21720;-79
2023/12/04 09:33:48;;;;;;;16.93;12.07;;;;;;;-0.33;100.00;101431.13;1461214;89;21937;-79
2023/12/04 09:36:15;;;;;;;20.60;12.13;;;;;;;0.16;100.00;101416.34;1460070;89;22231;-78
2023/12/04 09:38:41;;;;;;;17.30;12.00;;;;;;;0.56;100.00;101417.45;1460056;89;22086;-79
2023/12/04 09:41:10;;;;;;;16.63;11.33;;;;;;;1.37;100.00;101409.41;1460609;89;22154;-77
2023/12/04 09:43:37;;;;;;;19.87;13.30;;;;;;;1.37;100.00;101409.41;1450557;89;21522;-79
2023/12/04 09:46:05;;;;;;;15.30;11.30;;;;;;;1.76;100.00;101416.83;1455491;89;21632;-79
2023/12/04 09:48:32;;;;;;;18.13;11.90;;;;;;;2.06;100.00;101413.77;1457312;89;21419;-79
2023/12/04 09:51:00;;;;;;;18.63;13.47;;;;;;;2.30;100.00;101404.42;1383469;89;21502;-80
2023/12/04 09:53:28;;;;;;;17.23;12.07;;;;;;;2.53;100.00;101401.58;1383261;89;21367;-82
2023/12/04 09:55:58;;;;;;;14.63;11.23;;;;;;;2.74;100.00;101398.44;1382324;89;22219;-78
2023/12/04 09:58:29;;;;;;;17.15;12.50;;;;;;;2.81;100.00;101391.13;1541886;89;21338;-78
2023/12/04 10:00:56;;;;;;;22.17;11.40;;;;;;;2.75;100.00;101387.52;1408717;89;21486;-78
2023/12/04 10:03:23;;;;;;;16.73;11.80;;;;;;;3.08;100.00;101378.02;1371426;90;21368;-79
2023/12/04 10:05:49;;;;;;;14.43;11.70;;;;;;;3.18;100.00;101379.70;1384093;89;21427;-79
2023/12/04 10:08:17;;;;;;;14.57;11.27;;;;;;;3.28;100.00;101384.00;1384401;89;22344;-78
2023/12/04 10:10:44;;;;;;;16.57;12.53;;;;;;;3.31;100.00;101378.61;1382736;89;21316;-79
2023/12/04 10:13:10;;;;;;;15.67;10.30;;;;;;;3.30;100.00;101371.70;1383662;89;21331;-79
2023/12/04 10:15:48;;;;;;;16.97;11.73;;;;;;;3.42;100.00;101364.52;1426923;89;21455;-79
2023/12/04 10:18:31;;;;;;;15.70;10.90;;;;;;;3.41;100.00;101362.84;1542412;89;21346;-79
2023/12/04 10:20:59;;;;;;;16.57;12.77;;;;;;;3.16;100.00;101365.41;1382758;89;21448;-78
2023/12/04 10:23:43;;;;;;;15.70;11.43;;;;;;;3.06;100.00;101358.94;1386656;89;21434;-78
2023/12/04 10:26:10;;;;;;;13.40;9.47;;;;;;;3.06;100.00;101358.09;1526978;89;21478;-79
2023/12/04 10:28:36;;;;;;;14.50;11.00;;;;;;;2.94;100.00;101352.55;1460562;89;21448;-78
2023/12/04 10:31:06;;;;;;;17.87;12.73;;;;;;;2.96;100.00;101343.30;1459105;89;21515;-78
2023/12/04 10:33:31;;;;;;;15.53;12.03;;;;;;;2.97;100.00;101341.56;1459413;88;22513;-78
2023/12/04 10:35:58;;;;;;;14.00;10.30;;;;;;;3.06;100.00;101339.31;1455749;89;21471;-78
2023/12/04 10:38:26;;;;;;;15.00;11.30;;;;;;;2.99;100.00;101337.91;1464241;89;22009;-78
2023/12/04 10:40:52;;;;;;;14.43;10.90;;;;;;;3.12;100.00;101340.78;1458969;88;21500;-78
2023/12/04 10:43:22;;;;;;;16.67;12.60;;;;;;;3.01;76.16;101334.77;1468255;88;21411;-78
2023/12/04 10:45:49;;;;;;;17.63;12.10;;;;;;;3.01;70.96;101341.31;1456540;89;21448;-79
2023/12/04 10:48:19;;;;;;;15.20;10.73;;;;;;;2.95;71.14;101336.39;1452920;88;21500;-78
2023/12/04 10:50:49;;;;;;;16.83;11.63;;;;;;;2.55;70.14;101343.56;1465239;89;22358;-80
2023/12/04 10:53:17;;;;;;;16.57;11.83;;;;;;;2.44;69.31;101341.92;1457875;89;21441;-78
2023/12/04 10:55:45;;;;;;;16.37;12.10;;;;;;;2.46;70.55;101345.31;1463240;89;21592;-78
2023/12/04 10:58:17;;;;;;;16.80;12.90;;;;;;;2.38;65.90;101356.59;1463930;88;21434;-80
2023/12/04 11:00:48;;;;;;;16.77;12.10;;;;;;;2.38;65.83;101347.44;1473936;89;21737;-79
2023/12/04 11:03:37;;;;;;;20.50;14.03;;;;;;;2.36;66.96;101344.92;1456281;88;21456;-79